sensor_id;sensor_type;location;lat;lon;timestamp;temperature;humidity
19868;DHT22;10096;51.112;6.776;2023-03-14T00:00:55;11.40;1.00
19868;DHT22;10096;51.112;6.776;2023-03-14T00:03:22;11.60;1.00
19868;DHT22;10096;51.112;6.776;2023-03-14T00:05:49;11.50;1.00
19868;DHT22;10096;51.112;6.776;2023-03-14T00:08:17;11.40;1.00
19868;DHT22;10096;51.112;6.776;2023-03-14T00:10:46;11.50;1.00
19868;DHT22;10096;51.112;6.776;2023-03-14T00:13:13;11.30;1.00
19868;DHT22;10096;51.112;6.776;2023-03-14T00:15:40;11.10;1.00
19868;DHT22;10096;51.112;6.776;2023-03-14T00:18:08;11.10;1.00
19868;DHT22;10096;51.112;6.776;2023-03-14T00:20:35;11.10;1.00
19868;DHT22;10096;51.112;6.776;2023-03-14T00:23:02;11.20;1.00
19868;DHT22;10096;51.112;6.776;2023-03-14T00:25:30;11.10;1.00
19868;DHT22;10096;51.112;6.776;2023-03-14T00:27:57;11.10;1.00
19868;DHT22;10096;51.112;6.776;2023-03-14T00:30:24;11.20;1.00
19868;DHT22;10096;51.112;6.776;2023-03-14T00:32:51;11.20;1.00
19868;DHT22;10096;51.112;6.776;2023-03-14T00:35:18;11.40;1.00
19868;DHT22;10096;51.112;6.776;2023-03-14T00:37:45;11.60;1.00
19868;DHT22;10096;51.112;6.776;2023-03-14T00:40:12;11.80;1.00
19868;DHT22;10096;51.112;6.776;2023-03-14T00:42:40;12.00;1.00
19868;DHT22;10096;51.112;6.776;2023-03-14T00:45:14;12.20;1.00
19868;DHT22;10096;51.112;6.776;2023-03-14T00:47:51;12.10;1.00
19868;DHT22;10096;51.112;6.776;2023-03-14T00:50:26;12.00;1.00
19868;DHT22;10096;51.112;6.776;2023-03-14T00:53:06;11.80;1.00
19868;DHT22;10096;51.112;6.776;2023-03-14T00:55:51;11.50;1.00
19868;DHT22;10096;51.112;6.776;2023-03-14T00:58:27;11.20;1.00
19868;DHT22;10096;51.112;6.776;2023-03-14T01:00:58;10.90;1.00
19868;DHT22;10096;51.112;6.776;2023-03-14T01:03:26;11.10;1.00
19868;DHT22;10096;51.112;6.776;2023-03-14T01:05:53;10.80;1.00
19868;DHT22;10096;51.112;6.776;2023-03-14T01:08:20;10.70;14.50
19868;DHT22;10096;51.112;6.776;2023-03-14T01:10:47;10.70;27.80
19868;DHT22;10096;51.112;6.776;2023-03-14T01:13:14;10.60;62.60
19868;DHT22;10096;51.112;6.776;2023-03-14T01:15:44;10.60;99.90
19868;DHT22;10096;51.112;6.776;2023-03-14T01:18:12;10.60;99.90
19868;DHT22;10096;51.112;6.776;2023-03-14T01:20:39;10.70;99.90
19868;DHT22;10096;51.112;6.776;2023-03-14T01:23:06;10.60;99.90
19868;DHT22;10096;51.112;6.776;2023-03-14T01:25:33;10.60;99.90
19868;DHT22;10096;51.112;6.776;2023-03-14T01:28:00;10.60;99.90
19868;DHT22;10096;51.112;6.776;2023-03-14T01:30:27;10.80;99.90
19868;DHT22;10096;51.112;6.776;2023-03-14T01:32:55;10.60;99.90
19868;DHT22;10096;51.112;6.776;2023-03-14T01:35:22;10.50;99.90
19868;DHT22;10096;51.112;6.776;2023-03-14T01:37:49;10.70;99.90
19868;DHT22;10096;51.112;6.776;2023-03-14T01:40:17;10.50;99.90
19868;DHT22;10096;51.112;6.776;2023-03-14T01:42:46;10.50;99.90
19868;DHT22;10096;51.112;6.776;2023-03-14T01:48:22;10.50;99.90
19868;DHT22;10096;51.112;6.776;2023-03-14T01:50:50;10.50;99.90
19868;DHT22;10096;51.112;6.776;2023-03-14T01:53:17;10.60;98.80
19868;DHT22;10096;51.112;6.776;2023-03-14T01:55:46;10.60;87.30
19868;DHT22;10096;51.112;6.776;2023-03-14T01:58:14;10.80;51.50
19868;DHT22;10096;51.112;6.776;2023-03-14T02:00:43;10.60;68.80
19868;DHT22;10096;51.112;6.776;2023-03-14T02:03:13;10.50;86.00
19868;DHT22;10096;51.112;6.776;2023-03-14T02:05:43;10.40;96.60
19868;DHT22;10096;51.112;6.776;2023-03-14T02:08:14;10.40;99.90
19868;DHT22;10096;51.112;6.776;2023-03-14T02:10:44;10.30;99.90
19868;DHT22;10096;51.112;6.776;2023-03-14T02:13:12;10.40;99.90
19868;DHT22;10096;51.112;6.776;2023-03-14T02:15:40;10.40;99.90
19868;DHT22;10096;51.112;6.776;2023-03-14T02:18:08;10.50;94.60
19868;DHT22;10096;51.112;6.776;2023-03-14T02:20:39;10.60;58.40
19868;DHT22;10096;51.112;6.776;2023-03-14T02:23:09;10.90;27.90
19868;DHT22;10096;51.112;6.776;2023-03-14T02:25:42;10.90;5.70
19868;DHT22;10096;51.112;6.776;2023-03-14T02:28:12;10.60;1.00
19868;DHT22;10096;51.112;6.776;2023-03-14T02:30:40;10.60;5.30
19868;DHT22;10096;51.112;6.776;2023-03-14T02:33:08;10.70;1.00
19868;DHT22;10096;51.112;6.776;2023-03-14T02:35:39;10.60;1.00
19868;DHT22;10096;51.112;6.776;2023-03-14T02:38:12;10.70;1.00
19868;DHT22;10096;51.112;6.776;2023-03-14T02:40:41;10.80;1.00
19868;DHT22;10096;51.112;6.776;2023-03-14T02:43:08;10.80;1.00
19868;DHT22;10096;51.112;6.776;2023-03-14T02:45:42;10.90;1.00
19868;DHT22;10096;51.112;6.776;2023-03-14T02:48:14;10.90;1.00
19868;DHT22;10096;51.112;6.776;2023-03-14T02:50:41;10.90;1.00
19868;DHT22;10096;51.112;6.776;2023-03-14T02:53:08;11.00;1.00
19868;DHT22;10096;51.112;6.776;2023-03-14T02:55:36;10.90;1.00
19868;DHT22;10096;51.112;6.776;2023-03-14T02:58:03;10.90;1.00
19868;DHT22;10096;51.112;6.776;2023-03-14T03:00:30;10.80;1.00
19868;DHT22;10096;51.112;6.776;2023-03-14T03:03:00;10.80;1.00
19868;DHT22;10096;51.112;6.776;2023-03-14T03:05:27;10.80;1.00
19868;DHT22;10096;51.112;6.776;2023-03-14T03:07:54;10.70;1.00
19868;DHT22;10096;51.112;6.776;2023-03-14T03:10:22;10.60;1.00
19868;DHT22;10096;51.112;6.776;2023-03-14T03:12:49;10.60;10.50
19868;DHT22;10096;51.112;6.776;2023-03-14T03:15:16;10.60;3.30
19868;DHT22;10096;51.112;6.776;2023-03-14T03:17:43;10.60;2.10
19868;DHT22;10096;51.112;6.776;2023-03-14T03:20:12;10.60;1.00
19868;DHT22;10096;51.112;6.776;2023-03-14T03:22:39;10.70;1.00
19868;DHT22;10096;51.112;6.776;2023-03-14T03:25:07;10.70;37.90
19868;DHT22;10096;51.112;6.776;2023-03-14T03:27:35;10.80;99.90
19868;DHT22;10096;51.112;6.776;2023-03-14T03:30:03;10.80;99.90
19868;DHT22;10096;51.112;6.776;2023-03-14T03:32:30;10.90;99.90
19868;DHT22;10096;51.112;6.776;2023-03-14T03:34:57;10.90;99.90
19868;DHT22;10096;51.112;6.776;2023-03-14T03:37:26;10.90;99.90
19868;DHT22;10096;51.112;6.776;2023-03-14T03:39:53;11.10;99.90
19868;DHT22;10096;51.112;6.776;2023-03-14T03:42:20;10.90;99.90
19868;DHT22;10096;51.112;6.776;2023-03-14T03:44:47;10.90;99.90
19868;DHT22;10096;51.112;6.776;2023-03-14T03:47:15;10.80;99.90
19868;DHT22;10096;51.112;6.776;2023-03-14T03:49:42;10.80;99.90
19868;DHT22;10096;51.112;6.776;2023-03-14T03:52:09;10.70;99.90
19868;DHT22;10096;51.112;6.776;2023-03-14T03:54:38;10.60;99.90
19868;DHT22;10096;51.112;6.776;2023-03-14T03:57:04;10.50;99.90
19868;DHT22;10096;51.112;6.776;2023-03-14T03:59:33;10.50;99.90
19868;DHT22;10096;51.112;6.776;2023-03-14T04:02:00;10.50;99.90
19868;DHT22;10096;51.112;6.776;2023-03-14T04:04:28;10.40;99.90
19868;DHT22;10096;51.112;6.776;2023-03-14T04:06:55;10.40;99.90
19868;DHT22;10096;51.112;6.776;2023-03-14T04:09:22;10.30;99.90
19868;DHT22;10096;51.112;6.776;2023-03-14T04:11:51;10.20;99.90
19868;DHT22;10096;51.112;6.776;2023-03-14T04:14:18;10.10;1.00
19868;DHT22;10096;51.112;6.776;2023-03-14T04:16:45;10.30;1.00
19868;DHT22;10096;51.112;6.776;2023-03-14T04:19:12;10.20;1.00
19868;DHT22;10096;51.112;6.776;2023-03-14T04:21:39;10.20;1.00
19868;DHT22;10096;51.112;6.776;2023-03-14T04:24:10;10.10;1.00
19868;DHT22;10096;51.112;6.776;2023-03-14T04:26:37;9.90;1.00
19868;DHT22;10096;51.112;6.776;2023-03-14T04:29:05;9.90;1.00
19868;DHT22;10096;51.112;6.776;2023-03-14T04:31:32;10.00;1.00
19868;DHT22;10096;51.112;6.776;2023-03-14T04:33:59;10.00;1.00
19868;DHT22;10096;51.112;6.776;2023-03-14T04:36:26;10.10;1.00
19868;DHT22;10096;51.112;6.776;2023-03-14T04:38:53;10.20;1.00
19868;DHT22;10096;51.112;6.776;2023-03-14T04:41:20;10.30;1.00
19868;DHT22;10096;51.112;6.776;2023-03-14T04:43:47;10.40;1.00
19868;DHT22;10096;51.112;6.776;2023-03-14T04:46:15;10.60;99.90
19868;DHT22;10096;51.112;6.776;2023-03-14T04:48:42;10.60;99.90
19868;DHT22;10096;51.112;6.776;2023-03-14T04:51:09;10.40;99.90
19868;DHT22;10096;51.112;6.776;2023-03-14T04:53:36;10.60;99.90
19868;DHT22;10096;51.112;6.776;2023-03-14T04:56:03;10.40;99.90
19868;DHT22;10096;51.112;6.776;2023-03-14T04:58:30;10.50;99.90
19868;DHT22;10096;51.112;6.776;2023-03-14T05:01:01;10.60;99.90
19868;DHT22;10096;51.112;6.776;2023-03-14T05:03:30;10.50;99.90
19868;DHT22;10096;51.112;6.776;2023-03-14T05:05:56;10.60;99.90
19868;DHT22;10096;51.112;6.776;2023-03-14T05:08:26;10.50;99.90
19868;DHT22;10096;51.112;6.776;2023-03-14T05:10:53;10.50;99.90
19868;DHT22;10096;51.112;6.776;2023-03-14T05:13:20;10.50;99.90
19868;DHT22;10096;51.112;6.776;2023-03-14T05:15:47;10.50;99.90
19868;DHT22;10096;51.112;6.776;2023-03-14T05:18:15;10.70;99.90
19868;DHT22;10096;51.112;6.776;2023-03-14T05:20:44;10.50;99.90
19868;DHT22;10096;51.112;6.776;2023-03-14T05:23:11;10.60;99.90
19868;DHT22;10096;51.112;6.776;2023-03-14T05:25:39;10.50;99.90
19868;DHT22;10096;51.112;6.776;2023-03-14T05:28:06;10.60;99.90
19868;DHT22;10096;51.112;6.776;2023-03-14T05:30:33;10.60;99.90
19868;DHT22;10096;51.112;6.776;2023-03-14T05:32:59;10.70;99.90
19868;DHT22;10096;51.112;6.776;2023-03-14T05:35:26;10.50;99.90
19868;DHT22;10096;51.112;6.776;2023-03-14T05:37:57;10.50;99.90
19868;DHT22;10096;51.112;6.776;2023-03-14T05:40:24;10.50;99.90
19868;DHT22;10096;51.112;6.776;2023-03-14T05:42:53;10.50;99.90
19868;DHT22;10096;51.112;6.776;2023-03-14T05:45:20;10.60;99.90
19868;DHT22;10096;51.112;6.776;2023-03-14T05:47:47;10.60;99.90
19868;DHT22;10096;51.112;6.776;2023-03-14T05:50:13;10.70;99.90
19868;DHT22;10096;51.112;6.776;2023-03-14T05:52:40;10.70;99.90
19868;DHT22;10096;51.112;6.776;2023-03-14T05:55:09;10.70;99.90
19868;DHT22;10096;51.112;6.776;2023-03-14T05:57:36;10.80;99.90
19868;DHT22;10096;51.112;6.776;2023-03-14T06:00:04;10.90;99.90
19868;DHT22;10096;51.112;6.776;2023-03-14T06:02:31;10.90;99.90
19868;DHT22;10096;51.112;6.776;2023-03-14T06:04:58;10.90;99.90
19868;DHT22;10096;51.112;6.776;2023-03-14T06:07:25;10.80;99.90
19868;DHT22;10096;51.112;6.776;2023-03-14T06:09:52;10.90;99.90
19868;DHT22;10096;51.112;6.776;2023-03-14T06:12:20;10.90;99.90
19868;DHT22;10096;51.112;6.776;2023-03-14T06:14:47;11.10;64.10
19868;DHT22;10096;51.112;6.776;2023-03-14T06:17:14;10.90;83.30
19868;DHT22;10096;51.112;6.776;2023-03-14T06:19:41;10.90;66.50
19868;DHT22;10096;51.112;6.776;2023-03-14T06:22:08;10.90;43.20
19868;DHT22;10096;51.112;6.776;2023-03-14T06:24:35;11.00;83.20
19868;DHT22;10096;51.112;6.776;2023-03-14T06:27:02;11.10;64.30
19868;DHT22;10096;51.112;6.776;2023-03-14T06:29:34;11.10;39.60
19868;DHT22;10096;51.112;6.776;2023-03-14T06:32:01;11.30;24.70
19868;DHT22;10096;51.112;6.776;2023-03-14T06:34:30;11.30;13.70
19868;DHT22;10096;51.112;6.776;2023-03-14T06:36:57;11.20;1.00
19868;DHT22;10096;51.112;6.776;2023-03-14T06:39:24;11.20;1.00
19868;DHT22;10096;51.112;6.776;2023-03-14T06:41:51;11.20;1.00
19868;DHT22;10096;51.112;6.776;2023-03-14T06:44:18;11.30;1.00
19868;DHT22;10096;51.112;6.776;2023-03-14T06:46:46;11.30;1.00
19868;DHT22;10096;51.112;6.776;2023-03-14T06:49:13;11.30;1.00
19868;DHT22;10096;51.112;6.776;2023-03-14T06:51:40;11.40;1.00
19868;DHT22;10096;51.112;6.776;2023-03-14T06:54:16;11.40;1.00
19868;DHT22;10096;51.112;6.776;2023-03-14T06:56:43;11.40;1.00
19868;DHT22;10096;51.112;6.776;2023-03-14T06:59:10;11.50;1.00
19868;DHT22;10096;51.112;6.776;2023-03-14T07:01:37;11.60;1.00
19868;DHT22;10096;51.112;6.776;2023-03-14T07:04:09;11.60;1.00
19868;DHT22;10096;51.112;6.776;2023-03-14T07:06:36;11.60;1.00
19868;DHT22;10096;51.112;6.776;2023-03-14T07:09:05;11.70;1.00
19868;DHT22;10096;51.112;6.776;2023-03-14T07:11:31;11.90;1.00
19868;DHT22;10096;51.112;6.776;2023-03-14T07:13:58;12.00;1.00
19868;DHT22;10096;51.112;6.776;2023-03-14T07:16:25;12.00;1.00
19868;DHT22;10096;51.112;6.776;2023-03-14T07:18:56;11.90;1.00
19868;DHT22;10096;51.112;6.776;2023-03-14T07:21:25;12.00;1.00
19868;DHT22;10096;51.112;6.776;2023-03-14T07:23:52;12.00;1.00
19868;DHT22;10096;51.112;6.776;2023-03-14T07:26:19;12.10;1.00
19868;DHT22;10096;51.112;6.776;2023-03-14T07:28:46;12.20;1.00
19868;DHT22;10096;51.112;6.776;2023-03-14T07:31:13;12.20;1.00
19868;DHT22;10096;51.112;6.776;2023-03-14T07:33:41;12.30;1.00
19868;DHT22;10096;51.112;6.776;2023-03-14T07:36:10;12.50;1.00
19868;DHT22;10096;51.112;6.776;2023-03-14T07:38:38;12.40;1.00
19868;DHT22;10096;51.112;6.776;2023-03-14T07:41:06;12.20;1.00
19868;DHT22;10096;51.112;6.776;2023-03-14T07:43:33;12.30;1.00
19868;DHT22;10096;51.112;6.776;2023-03-14T07:46:00;12.10;1.00
19868;DHT22;10096;51.112;6.776;2023-03-14T07:48:29;12.30;1.00
19868;DHT22;10096;51.112;6.776;2023-03-14T07:50:56;12.20;1.00
19868;DHT22;10096;51.112;6.776;2023-03-14T07:53:24;12.40;1.00
19868;DHT22;10096;51.112;6.776;2023-03-14T07:55:53;12.20;1.00
19868;DHT22;10096;51.112;6.776;2023-03-14T07:58:22;12.50;1.00
19868;DHT22;10096;51.112;6.776;2023-03-14T08:00:49;12.40;1.00
19868;DHT22;10096;51.112;6.776;2023-03-14T08:03:16;12.70;1.00
19868;DHT22;10096;51.112;6.776;2023-03-14T08:05:43;12.70;1.00
19868;DHT22;10096;51.112;6.776;2023-03-14T08:08:13;12.70;1.00
19868;DHT22;10096;51.112;6.776;2023-03-14T08:10:40;12.90;1.00
19868;DHT22;10096;51.112;6.776;2023-03-14T08:13:11;12.90;1.00
19868;DHT22;10096;51.112;6.776;2023-03-14T08:15:38;12.60;1.00
19868;DHT22;10096;51.112;6.776;2023-03-14T08:18:07;12.80;1.00
19868;DHT22;10096;51.112;6.776;2023-03-14T08:20:35;12.60;1.00
19868;DHT22;10096;51.112;6.776;2023-03-14T08:23:02;12.80;1.00
19868;DHT22;10096;51.112;6.776;2023-03-14T08:25:29;12.70;1.00
19868;DHT22;10096;51.112;6.776;2023-03-14T08:27:57;12.70;1.00
19868;DHT22;10096;51.112;6.776;2023-03-14T08:30:25;12.70;1.00
19868;DHT22;10096;51.112;6.776;2023-03-14T08:32:52;12.80;1.00
19868;DHT22;10096;51.112;6.776;2023-03-14T08:35:19;12.80;1.00
19868;DHT22;10096;51.112;6.776;2023-03-14T08:37:46;12.80;1.00
19868;DHT22;10096;51.112;6.776;2023-03-14T08:40:13;12.60;1.00
19868;DHT22;10096;51.112;6.776;2023-03-14T08:42:42;12.60;1.00
19868;DHT22;10096;51.112;6.776;2023-03-14T08:45:12;12.70;1.00
19868;DHT22;10096;51.112;6.776;2023-03-14T08:47:41;12.70;1.00
19868;DHT22;10096;51.112;6.776;2023-03-14T08:50:09;12.80;1.00
19868;DHT22;10096;51.112;6.776;2023-03-14T08:52:39;12.80;1.00
19868;DHT22;10096;51.112;6.776;2023-03-14T08:55:07;12.80;1.00
19868;DHT22;10096;51.112;6.776;2023-03-14T08:57:34;12.60;74.70
19868;DHT22;10096;51.112;6.776;2023-03-14T09:00:03;12.50;84.30
19868;DHT22;10096;51.112;6.776;2023-03-14T09:02:33;12.40;96.10
19868;DHT22;10096;51.112;6.776;2023-03-14T09:05:03;12.40;99.90
19868;DHT22;10096;51.112;6.776;2023-03-14T09:07:30;12.20;99.90
19868;DHT22;10096;51.112;6.776;2023-03-14T09:09:57;12.30;99.90
19868;DHT22;10096;51.112;6.776;2023-03-14T09:12:24;12.20;99.90
19868;DHT22;10096;51.112;6.776;2023-03-14T09:14:51;12.20;99.90
19868;DHT22;10096;51.112;6.776;2023-03-14T09:17:20;12.20;99.90
19868;DHT22;10096;51.112;6.776;2023-03-14T09:19:47;12.10;99.90
19868;DHT22;10096;51.112;6.776;2023-03-14T09:22:15;12.40;99.90
19868;DHT22;10096;51.112;6.776;2023-03-14T09:24:42;11.80;65.40
19868;DHT22;10096;51.112;6.776;2023-03-14T09:27:09;11.80;14.20
19868;DHT22;10096;51.112;6.776;2023-03-14T09:29:36;11.70;1.00
19868;DHT22;10096;51.112;6.776;2023-03-14T09:32:03;11.40;1.00
19868;DHT22;10096;51.112;6.776;2023-03-14T09:34:30;11.30;1.00
19868;DHT22;10096;51.112;6.776;2023-03-14T09:36:57;11.10;1.00
19868;DHT22;10096;51.112;6.776;2023-03-14T09:39:27;11.00;1.00
19868;DHT22;10096;51.112;6.776;2023-03-14T09:41:56;10.90;1.00
19868;DHT22;10096;51.112;6.776;2023-03-14T09:44:27;10.70;1.00
19868;DHT22;10096;51.112;6.776;2023-03-14T09:46:58;10.60;1.00
19868;DHT22;10096;51.112;6.776;2023-03-14T09:50:05;10.50;1.00
19868;DHT22;10096;51.112;6.776;2023-03-14T09:52:36;10.70;5.10
19868;DHT22;10096;51.112;6.776;2023-03-14T09:58:20;10.80;1.00
19868;DHT22;10096;51.112;6.776;2023-03-14T10:00:52;10.60;1.00
19868;DHT22;10096;51.112;6.776;2023-03-14T10:03:25;10.80;12.30
19868;DHT22;10096;51.112;6.776;2023-03-14T10:05:53;10.80;1.00
19868;DHT22;10096;51.112;6.776;2023-03-14T10:08:21;10.60;50.20
19868;DHT22;10096;51.112;6.776;2023-03-14T10:10:48;10.60;55.60
19868;DHT22;10096;51.112;6.776;2023-03-14T10:13:19;10.40;72.20
19868;DHT22;10096;51.112;6.776;2023-03-14T10:15:53;10.40;91.60
19868;DHT22;10096;51.112;6.776;2023-03-14T10:18:22;10.40;13.40
19868;DHT22;10096;51.112;6.776;2023-03-14T10:21:02;10.20;1.00
19868;DHT22;10096;51.112;6.776;2023-03-14T10:23:32;10.20;7.40
19868;DHT22;10096;51.112;6.776;2023-03-14T10:26:06;10.10;1.00
19868;DHT22;10096;51.112;6.776;2023-03-14T10:28:39;10.20;15.20
19868;DHT22;10096;51.112;6.776;2023-03-14T10:31:07;10.50;1.00
19868;DHT22;10096;51.112;6.776;2023-03-14T10:33:35;10.40;1.00
19868;DHT22;10096;51.112;6.776;2023-03-14T10:36:03;10.40;1.00
19868;DHT22;10096;51.112;6.776;2023-03-14T10:38:33;10.40;1.00
19868;DHT22;10096;51.112;6.776;2023-03-14T10:41:02;10.50;1.00
19868;DHT22;10096;51.112;6.776;2023-03-14T10:43:32;10.50;1.00
19868;DHT22;10096;51.112;6.776;2023-03-14T10:46:08;10.50;30.90
19868;DHT22;10096;51.112;6.776;2023-03-14T10:48:37;10.40;30.30
19868;DHT22;10096;51.112;6.776;2023-03-14T10:51:09;10.40;37.90
19868;DHT22;10096;51.112;6.776;2023-03-14T10:53:42;10.50;17.80
19868;DHT22;10096;51.112;6.776;2023-03-14T10:56:12;10.70;29.60
19868;DHT22;10096;51.112;6.776;2023-03-14T10:58:42;10.80;1.00
19868;DHT22;10096;51.112;6.776;2023-03-14T11:01:25;10.80;1.00
19868;DHT22;10096;51.112;6.776;2023-03-14T11:03:57;11.10;1.00
19868;DHT22;10096;51.112;6.776;2023-03-14T11:06:33;11.30;1.00
19868;DHT22;10096;51.112;6.776;2023-03-14T11:09:06;11.10;1.00
19868;DHT22;10096;51.112;6.776;2023-03-14T11:11:39;10.90;1.00
19868;DHT22;10096;51.112;6.776;2023-03-14T11:14:18;10.80;1.00
19868;DHT22;10096;51.112;6.776;2023-03-14T11:16:53;10.40;1.00
19868;DHT22;10096;51.112;6.776;2023-03-14T11:19:34;10.00;1.00
19868;DHT22;10096;51.112;6.776;2023-03-14T11:22:06;9.70;16.80
19868;DHT22;10096;51.112;6.776;2023-03-14T11:24:48;9.70;79.30
19868;DHT22;10096;51.112;6.776;2023-03-14T11:27:17;9.50;24.50
19868;DHT22;10096;51.112;6.776;2023-03-14T11:29:55;9.30;30.20
19868;DHT22;10096;51.112;6.776;2023-03-14T11:32:34;9.20;92.90
19868;DHT22;10096;51.112;6.776;2023-03-14T11:35:04;9.20;99.90
19868;DHT22;10096;51.112;6.776;2023-03-14T11:37:36;9.30;99.90
19868;DHT22;10096;51.112;6.776;2023-03-14T11:40:14;9.20;99.90
19868;DHT22;10096;51.112;6.776;2023-03-14T11:42:45;9.30;99.90
19868;DHT22;10096;51.112;6.776;2023-03-14T11:45:17;9.40;99.90
19868;DHT22;10096;51.112;6.776;2023-03-14T11:47:52;9.40;92.60
19868;DHT22;10096;51.112;6.776;2023-03-14T11:50:23;9.40;99.90
19868;DHT22;10096;51.112;6.776;2023-03-14T11:52:54;9.30;96.90
19868;DHT22;10096;51.112;6.776;2023-03-14T11:55:25;9.10;58.00
19868;DHT22;10096;51.112;6.776;2023-03-14T11:57:59;9.00;94.90
19868;DHT22;10096;51.112;6.776;2023-03-14T12:00:29;8.70;1.00
19868;DHT22;10096;51.112;6.776;2023-03-14T12:03:02;8.70;1.00
19868;DHT22;10096;51.112;6.776;2023-03-14T12:05:42;8.80;1.00
19868;DHT22;10096;51.112;6.776;2023-03-14T12:11:42;9.00;1.00
19868;DHT22;10096;51.112;6.776;2023-03-14T12:14:20;9.20;1.00
19868;DHT22;10096;51.112;6.776;2023-03-14T12:16:49;9.40;1.00
19868;DHT22;10096;51.112;6.776;2023-03-14T12:19:31;9.40;1.00
19868;DHT22;10096;51.112;6.776;2023-03-14T12:22:01;9.40;1.00
19868;DHT22;10096;51.112;6.776;2023-03-14T12:24:35;9.40;1.00
19868;DHT22;10096;51.112;6.776;2023-03-14T12:27:10;9.40;1.00
19868;DHT22;10096;51.112;6.776;2023-03-14T12:29:58;9.20;1.00
19868;DHT22;10096;51.112;6.776;2023-03-14T12:32:25;9.20;1.00
19868;DHT22;10096;51.112;6.776;2023-03-14T12:34:54;9.40;1.00
19868;DHT22;10096;51.112;6.776;2023-03-14T12:37:29;9.20;1.00
19868;DHT22;10096;51.112;6.776;2023-03-14T12:40:11;9.20;1.00
19868;DHT22;10096;51.112;6.776;2023-03-14T12:42:51;9.40;1.00
19868;DHT22;10096;51.112;6.776;2023-03-14T12:45:26;9.40;1.00
19868;DHT22;10096;51.112;6.776;2023-03-14T12:48:11;9.40;1.00
19868;DHT22;10096;51.112;6.776;2023-03-14T12:50:45;9.30;1.00
19868;DHT22;10096;51.112;6.776;2023-03-14T12:53:33;9.60;1.00
19868;DHT22;10096;51.112;6.776;2023-03-14T12:56:11;9.50;1.00
19868;DHT22;10096;51.112;6.776;2023-03-14T12:58:44;9.80;1.00
19868;DHT22;10096;51.112;6.776;2023-03-14T13:01:17;10.10;1.00
19868;DHT22;10096;51.112;6.776;2023-03-14T13:03:47;10.00;1.00
19868;DHT22;10096;51.112;6.776;2023-03-14T13:06:50;10.20;1.00
19868;DHT22;10096;51.112;6.776;2023-03-14T13:12:29;10.40;1.00
19868;DHT22;10096;51.112;6.776;2023-03-14T13:14:58;10.00;1.00
19868;DHT22;10096;51.112;6.776;2023-03-14T13:17:29;9.10;1.00
19868;DHT22;10096;51.112;6.776;2023-03-14T13:19:59;8.60;1.00
19868;DHT22;10096;51.112;6.776;2023-03-14T13:22:31;8.60;1.00
19868;DHT22;10096;51.112;6.776;2023-03-14T13:25:01;8.70;1.00
19868;DHT22;10096;51.112;6.776;2023-03-14T13:27:31;8.40;1.00
19868;DHT22;10096;51.112;6.776;2023-03-14T13:29:58;8.30;1.00
19868;DHT22;10096;51.112;6.776;2023-03-14T13:32:29;8.20;1.00
19868;DHT22;10096;51.112;6.776;2023-03-14T13:34:57;8.20;1.00
19868;DHT22;10096;51.112;6.776;2023-03-14T13:37:26;8.30;1.00
19868;DHT22;10096;51.112;6.776;2023-03-14T13:39:56;8.70;1.00
19868;DHT22;10096;51.112;6.776;2023-03-14T13:42:26;8.60;1.00
19868;DHT22;10096;51.112;6.776;2023-03-14T13:44:55;8.60;1.00
19868;DHT22;10096;51.112;6.776;2023-03-14T13:47:24;8.60;1.00
19868;DHT22;10096;51.112;6.776;2023-03-14T13:49:52;8.60;1.00
19868;DHT22;10096;51.112;6.776;2023-03-14T13:52:24;8.50;1.00
19868;DHT22;10096;51.112;6.776;2023-03-14T13:54:57;8.80;1.00
19868;DHT22;10096;51.112;6.776;2023-03-14T13:57:25;8.90;1.00
19868;DHT22;10096;51.112;6.776;2023-03-14T14:00:00;8.60;1.00
19868;DHT22;10096;51.112;6.776;2023-03-14T14:02:33;8.80;1.00
19868;DHT22;10096;51.112;6.776;2023-03-14T14:05:01;8.90;1.00
19868;DHT22;10096;51.112;6.776;2023-03-14T14:07:28;8.90;1.00
19868;DHT22;10096;51.112;6.776;2023-03-14T14:09:58;9.20;1.00
19868;DHT22;10096;51.112;6.776;2023-03-14T14:12:28;9.00;1.00
19868;DHT22;10096;51.112;6.776;2023-03-14T14:14:58;9.00;1.00
19868;DHT22;10096;51.112;6.776;2023-03-14T14:17:31;9.00;1.00
19868;DHT22;10096;51.112;6.776;2023-03-14T14:19:59;9.40;1.00
19868;DHT22;10096;51.112;6.776;2023-03-14T14:22:29;9.20;1.00
19868;DHT22;10096;51.112;6.776;2023-03-14T14:25:00;9.30;1.00
19868;DHT22;10096;51.112;6.776;2023-03-14T14:27:29;9.30;1.00
19868;DHT22;10096;51.112;6.776;2023-03-14T14:30:02;9.50;1.00
19868;DHT22;10096;51.112;6.776;2023-03-14T14:32:35;9.40;1.00
19868;DHT22;10096;51.112;6.776;2023-03-14T14:35:03;9.50;1.00
19868;DHT22;10096;51.112;6.776;2023-03-14T14:37:32;9.40;1.00
19868;DHT22;10096;51.112;6.776;2023-03-14T14:40:07;9.50;1.00
19868;DHT22;10096;51.112;6.776;2023-03-14T14:42:40;9.70;1.00
19868;DHT22;10096;51.112;6.776;2023-03-14T14:45:13;9.60;1.00
19868;DHT22;10096;51.112;6.776;2023-03-14T14:47:49;9.70;1.00
19868;DHT22;10096;51.112;6.776;2023-03-14T14:50:27;9.80;1.00
19868;DHT22;10096;51.112;6.776;2023-03-14T14:52:57;9.90;1.00
19868;DHT22;10096;51.112;6.776;2023-03-14T14:55:31;10.00;1.00
19868;DHT22;10096;51.112;6.776;2023-03-14T14:58:12;10.00;1.00
19868;DHT22;10096;51.112;6.776;2023-03-14T15:00:39;10.10;1.00
19868;DHT22;10096;51.112;6.776;2023-03-14T15:03:13;10.20;1.00
19868;DHT22;10096;51.112;6.776;2023-03-14T15:05:41;10.20;1.00
19868;DHT22;10096;51.112;6.776;2023-03-14T15:08:09;10.20;1.00
19868;DHT22;10096;51.112;6.776;2023-03-14T15:10:38;10.30;1.00
19868;DHT22;10096;51.112;6.776;2023-03-14T15:13:05;10.20;1.00
19868;DHT22;10096;51.112;6.776;2023-03-14T15:15:33;10.20;99.90
19868;DHT22;10096;51.112;6.776;2023-03-14T15:18:00;10.30;99.90
19868;DHT22;10096;51.112;6.776;2023-03-14T15:20:27;10.10;99.90
19868;DHT22;10096;51.112;6.776;2023-03-14T15:22:54;10.00;99.90
19868;DHT22;10096;51.112;6.776;2023-03-14T15:25:20;10.00;99.90
19868;DHT22;10096;51.112;6.776;2023-03-14T15:27:49;10.00;99.90
19868;DHT22;10096;51.112;6.776;2023-03-14T15:30:16;9.80;99.90
19868;DHT22;10096;51.112;6.776;2023-03-14T15:32:43;9.90;99.90
19868;DHT22;10096;51.112;6.776;2023-03-14T15:35:11;9.80;99.90
19868;DHT22;10096;51.112;6.776;2023-03-14T15:37:40;9.70;99.90
19868;DHT22;10096;51.112;6.776;2023-03-14T15:40:12;9.60;99.90
19868;DHT22;10096;51.112;6.776;2023-03-14T15:42:39;9.60;99.90
19868;DHT22;10096;51.112;6.776;2023-03-14T15:45:11;9.60;99.90
19868;DHT22;10096;51.112;6.776;2023-03-14T15:47:39;9.60;99.90
19868;DHT22;10096;51.112;6.776;2023-03-14T15:50:09;9.70;99.90
19868;DHT22;10096;51.112;6.776;2023-03-14T15:52:36;9.70;99.90
19868;DHT22;10096;51.112;6.776;2023-03-14T15:55:03;9.70;99.90
19868;DHT22;10096;51.112;6.776;2023-03-14T15:57:30;9.80;99.90
19868;DHT22;10096;51.112;6.776;2023-03-14T15:59:57;9.80;99.90
19868;DHT22;10096;51.112;6.776;2023-03-14T16:02:25;9.90;99.90
19868;DHT22;10096;51.112;6.776;2023-03-14T16:04:53;9.70;99.90
19868;DHT22;10096;51.112;6.776;2023-03-14T16:07:20;9.70;99.90
19868;DHT22;10096;51.112;6.776;2023-03-14T16:09:47;9.50;99.90